sensor_id;sensor_type;location;lat;lon;timestamp;temperature;humidity
59128;DHT22;44912;52.754;5.994;2022-08-19T00:00:19;18.00;99.90
59128;DHT22;44912;52.754;5.994;2022-08-19T00:02:45;17.90;99.90
59128;DHT22;44912;52.754;5.994;2022-08-19T00:05:12;17.90;99.90
59128;DHT22;44912;52.754;5.994;2022-08-19T00:07:38;17.80;99.90
59128;DHT22;44912;52.754;5.994;2022-08-19T00:10:06;17.80;99.90
59128;DHT22;44912;52.754;5.994;2022-08-19T00:12:32;17.80;99.90
59128;DHT22;44912;52.754;5.994;2022-08-19T00:14:58;17.70;99.90
59128;DHT22;44912;52.754;5.994;2022-08-19T00:17:24;17.70;99.90
59128;DHT22;44912;52.754;5.994;2022-08-19T00:19:49;17.60;99.90
59128;DHT22;44912;52.754;5.994;2022-08-19T00:22:15;17.50;99.90
59128;DHT22;44912;52.754;5.994;2022-08-19T00:24:46;17.50;99.90
59128;DHT22;44912;52.754;5.994;2022-08-19T00:27:12;17.40;99.90
59128;DHT22;44912;52.754;5.994;2022-08-19T00:29:38;17.40;99.90
59128;DHT22;44912;52.754;5.994;2022-08-19T00:32:04;17.40;99.90
59128;DHT22;44912;52.754;5.994;2022-08-19T00:34:30;17.40;99.90
59128;DHT22;44912;52.754;5.994;2022-08-19T00:36:56;17.40;99.90
59128;DHT22;44912;52.754;5.994;2022-08-19T00:39:22;17.30;99.90
59128;DHT22;44912;52.754;5.994;2022-08-19T00:41:48;17.30;99.90
59128;DHT22;44912;52.754;5.994;2022-08-19T00:44:22;17.20;99.90
59128;DHT22;44912;52.754;5.994;2022-08-19T00:46:59;17.10;99.90
59128;DHT22;44912;52.754;5.994;2022-08-19T00:49:39;17.10;99.90
59128;DHT22;44912;52.754;5.994;2022-08-19T00:52:14;17.10;99.90
59128;DHT22;44912;52.754;5.994;2022-08-19T00:54:41;17.00;99.90
59128;DHT22;44912;52.754;5.994;2022-08-19T00:57:10;17.00;99.90
59128;DHT22;44912;52.754;5.994;2022-08-19T00:59:40;17.00;99.90
59128;DHT22;44912;52.754;5.994;2022-08-19T01:02:06;17.00;99.90
59128;DHT22;44912;52.754;5.994;2022-08-19T01:04:32;17.00;99.90
59128;DHT22;44912;52.754;5.994;2022-08-19T01:06:58;17.00;99.90
59128;DHT22;44912;52.754;5.994;2022-08-19T01:09:24;16.90;99.90
59128;DHT22;44912;52.754;5.994;2022-08-19T01:11:50;16.90;99.90
59128;DHT22;44912;52.754;5.994;2022-08-19T01:14:16;16.90;99.90
59128;DHT22;44912;52.754;5.994;2022-08-19T01:16:43;16.90;99.90
59128;DHT22;44912;52.754;5.994;2022-08-19T01:19:22;16.90;99.90
59128;DHT22;44912;52.754;5.994;2022-08-19T01:22:01;16.90;99.90
59128;DHT22;44912;52.754;5.994;2022-08-19T01:24:27;16.90;99.90
59128;DHT22;44912;52.754;5.994;2022-08-19T01:26:53;16.80;99.90
59128;DHT22;44912;52.754;5.994;2022-08-19T01:29:20;16.70;99.90
59128;DHT22;44912;52.754;5.994;2022-08-19T01:31:45;16.70;99.90
59128;DHT22;44912;52.754;5.994;2022-08-19T01:34:11;16.60;99.90
59128;DHT22;44912;52.754;5.994;2022-08-19T01:36:41;16.70;99.90
59128;DHT22;44912;52.754;5.994;2022-08-19T01:39:12;16.70;99.90
59128;DHT22;44912;52.754;5.994;2022-08-19T01:41:38;16.60;99.90
59128;DHT22;44912;52.754;5.994;2022-08-19T01:44:04;16.60;99.90
59128;DHT22;44912;52.754;5.994;2022-08-19T01:46:31;16.60;99.90
59128;DHT22;44912;52.754;5.994;2022-08-19T01:48:58;16.50;99.90
59128;DHT22;44912;52.754;5.994;2022-08-19T01:51:24;16.50;99.90
59128;DHT22;44912;52.754;5.994;2022-08-19T01:53:51;16.40;99.90
59128;DHT22;44912;52.754;5.994;2022-08-19T01:56:18;16.30;99.90
59128;DHT22;44912;52.754;5.994;2022-08-19T01:58:49;16.30;99.90
59128;DHT22;44912;52.754;5.994;2022-08-19T04:46:19;15.40;99.90
59128;DHT22;44912;52.754;5.994;2022-08-19T05:30:06;16.20;99.90
59128;DHT22;44912;52.754;5.994;2022-08-19T05:32:57;16.30;99.90
59128;DHT22;44912;52.754;5.994;2022-08-19T06:00:54;17.30;99.90
59128;DHT22;44912;52.754;5.994;2022-08-19T06:03:20;17.30;99.90
59128;DHT22;44912;52.754;5.994;2022-08-19T06:05:45;17.50;99.90
59128;DHT22;44912;52.754;5.994;2022-08-19T06:08:11;17.50;99.90
59128;DHT22;44912;52.754;5.994;2022-08-19T06:10:36;17.50;99.90
59128;DHT22;44912;52.754;5.994;2022-08-19T06:13:02;17.60;99.90
59128;DHT22;44912;52.754;5.994;2022-08-19T06:15:28;17.60;99.90
59128;DHT22;44912;52.754;5.994;2022-08-19T06:18:15;17.60;99.90
59128;DHT22;44912;52.754;5.994;2022-08-19T06:37:31;18.10;99.90
59128;DHT22;44912;52.754;5.994;2022-08-19T06:50:46;18.60;99.90
59128;DHT22;44912;52.754;5.994;2022-08-19T06:53:35;18.70;99.90
59128;DHT22;44912;52.754;5.994;2022-08-19T06:56:00;18.70;99.90
59128;DHT22;44912;52.754;5.994;2022-08-19T06:58:32;18.80;99.90
59128;DHT22;44912;52.754;5.994;2022-08-19T07:01:02;18.90;99.90
59128;DHT22;44912;52.754;5.994;2022-08-19T07:03:33;19.00;99.90
59128;DHT22;44912;52.754;5.994;2022-08-19T07:06:08;19.10;99.90
59128;DHT22;44912;52.754;5.994;2022-08-19T07:08:35;19.20;99.90
59128;DHT22;44912;52.754;5.994;2022-08-19T07:11:05;19.20;99.90
59128;DHT22;44912;52.754;5.994;2022-08-19T07:13:32;19.30;99.90
59128;DHT22;44912;52.754;5.994;2022-08-19T07:16:06;19.40;99.90
59128;DHT22;44912;52.754;5.994;2022-08-19T07:18:32;19.50;99.90
59128;DHT22;44912;52.754;5.994;2022-08-19T07:21:05;19.60;99.90
59128;DHT22;44912;52.754;5.994;2022-08-19T07:23:31;19.70;99.90
59128;DHT22;44912;52.754;5.994;2022-08-19T07:25:56;19.70;99.90
59128;DHT22;44912;52.754;5.994;2022-08-19T07:28:22;19.80;99.90
59128;DHT22;44912;52.754;5.994;2022-08-19T07:30:48;19.90;99.90
59128;DHT22;44912;52.754;5.994;2022-08-19T07:33:15;20.00;99.90
59128;DHT22;44912;52.754;5.994;2022-08-19T07:35:43;20.10;99.90
59128;DHT22;44912;52.754;5.994;2022-08-19T07:38:09;20.10;99.90
59128;DHT22;44912;52.754;5.994;2022-08-19T07:40:34;20.20;99.90
59128;DHT22;44912;52.754;5.994;2022-08-19T07:43:00;20.30;99.90
59128;DHT22;44912;52.754;5.994;2022-08-19T07:45:26;20.30;99.90
59128;DHT22;44912;52.754;5.994;2022-08-19T07:47:53;20.40;99.90
59128;DHT22;44912;52.754;5.994;2022-08-19T07:50:20;20.50;99.90
59128;DHT22;44912;52.754;5.994;2022-08-19T07:52:45;20.60;99.90
59128;DHT22;44912;52.754;5.994;2022-08-19T07:55:12;20.70;99.90
59128;DHT22;44912;52.754;5.994;2022-08-19T07:57:37;20.70;99.90
59128;DHT22;44912;52.754;5.994;2022-08-19T08:00:04;20.80;99.90
59128;DHT22;44912;52.754;5.994;2022-08-19T08:02:31;20.90;99.90
59128;DHT22;44912;52.754;5.994;2022-08-19T08:04:56;21.00;99.90
59128;DHT22;44912;52.754;5.994;2022-08-19T08:07:40;21.00;99.90
59128;DHT22;44912;52.754;5.994;2022-08-19T08:10:24;21.10;99.90
59128;DHT22;44912;52.754;5.994;2022-08-19T08:12:51;21.20;99.90
59128;DHT22;44912;52.754;5.994;2022-08-19T08:15:17;21.30;99.90
59128;DHT22;44912;52.754;5.994;2022-08-19T08:17:44;21.30;99.90
59128;DHT22;44912;52.754;5.994;2022-08-19T08:20:11;21.40;99.90
59128;DHT22;44912;52.754;5.994;2022-08-19T08:22:37;21.40;99.90
59128;DHT22;44912;52.754;5.994;2022-08-19T08:25:23;21.50;99.90
59128;DHT22;44912;52.754;5.994;2022-08-19T08:27:49;21.60;99.90
59128;DHT22;44912;52.754;5.994;2022-08-19T08:30:23;21.70;99.90
59128;DHT22;44912;52.754;5.994;2022-08-19T08:32:49;21.90;99.90
59128;DHT22;44912;52.754;5.994;2022-08-19T08:35:19;21.90;99.90
59128;DHT22;44912;52.754;5.994;2022-08-19T08:37:45;22.00;99.90
59128;DHT22;44912;52.754;5.994;2022-08-19T08:40:33;22.20;99.90
59128;DHT22;44912;52.754;5.994;2022-08-19T08:43:05;22.20;99.90
59128;DHT22;44912;52.754;5.994;2022-08-19T08:45:35;22.20;99.90
59128;DHT22;44912;52.754;5.994;2022-08-19T08:48:22;22.30;99.90
59128;DHT22;44912;52.754;5.994;2022-08-19T08:50:50;22.40;99.90
59128;DHT22;44912;52.754;5.994;2022-08-19T08:53:18;22.40;99.90
59128;DHT22;44912;52.754;5.994;2022-08-19T08:55:44;22.60;99.90
59128;DHT22;44912;52.754;5.994;2022-08-19T08:58:15;22.70;99.90
59128;DHT22;44912;52.754;5.994;2022-08-19T09:00:46;22.70;99.90
59128;DHT22;44912;52.754;5.994;2022-08-19T09:05:57;22.70;99.90
59128;DHT22;44912;52.754;5.994;2022-08-19T09:08:49;22.70;99.90
59128;DHT22;44912;52.754;5.994;2022-08-19T09:12:15;22.90;99.90
59128;DHT22;44912;52.754;5.994;2022-08-19T09:14:52;22.90;99.90
59128;DHT22;44912;52.754;5.994;2022-08-19T09:17:26;23.10;99.90
59128;DHT22;44912;52.754;5.994;2022-08-19T09:20:21;23.10;99.90
59128;DHT22;44912;52.754;5.994;2022-08-19T09:22:47;22.80;99.90
59128;DHT22;44912;52.754;5.994;2022-08-19T09:25:17;22.80;99.90
59128;DHT22;44912;52.754;5.994;2022-08-19T09:27:44;22.70;99.90
59128;DHT22;44912;52.754;5.994;2022-08-19T09:30:22;22.90;99.90
59128;DHT22;44912;52.754;5.994;2022-08-19T09:32:49;23.10;99.90
59128;DHT22;44912;52.754;5.994;2022-08-19T09:35:18;23.10;99.90
59128;DHT22;44912;52.754;5.994;2022-08-19T09:37:44;23.10;99.90
59128;DHT22;44912;52.754;5.994;2022-08-19T09:40:10;23.30;99.90
59128;DHT22;44912;52.754;5.994;2022-08-19T09:42:36;23.40;99.90
59128;DHT22;44912;52.754;5.994;2022-08-19T09:45:04;23.20;99.90
59128;DHT22;44912;52.754;5.994;2022-08-19T09:47:30;22.90;99.90
59128;DHT22;44912;52.754;5.994;2022-08-19T09:49:55;22.90;99.90
59128;DHT22;44912;52.754;5.994;2022-08-19T09:52:21;23.10;99.90
59128;DHT22;44912;52.754;5.994;2022-08-19T09:54:46;23.20;99.90
59128;DHT22;44912;52.754;5.994;2022-08-19T09:57:12;23.30;99.90
59128;DHT22;44912;52.754;5.994;2022-08-19T09:59:38;23.40;99.90
59128;DHT22;44912;52.754;5.994;2022-08-19T10:02:04;23.40;99.90
59128;DHT22;44912;52.754;5.994;2022-08-19T10:04:30;23.60;99.90
59128;DHT22;44912;52.754;5.994;2022-08-19T10:07:14;23.60;99.90
59128;DHT22;44912;52.754;5.994;2022-08-19T10:09:40;23.70;99.90
59128;DHT22;44912;52.754;5.994;2022-08-19T10:12:07;23.70;99.90
59128;DHT22;44912;52.754;5.994;2022-08-19T10:14:33;23.80;99.90
59128;DHT22;44912;52.754;5.994;2022-08-19T10:17:00;23.90;99.90
59128;DHT22;44912;52.754;5.994;2022-08-19T10:19:27;23.90;99.90
59128;DHT22;44912;52.754;5.994;2022-08-19T10:21:57;23.90;99.90
59128;DHT22;44912;52.754;5.994;2022-08-19T10:24:23;24.00;99.90
59128;DHT22;44912;52.754;5.994;2022-08-19T10:26:51;24.10;99.90
59128;DHT22;44912;52.754;5.994;2022-08-19T10:29:16;24.00;99.90
59128;DHT22;44912;52.754;5.994;2022-08-19T10:31:42;23.90;99.90
59128;DHT22;44912;52.754;5.994;2022-08-19T10:34:08;23.90;99.90
59128;DHT22;44912;52.754;5.994;2022-08-19T10:36:36;23.90;99.90
59128;DHT22;44912;52.754;5.994;2022-08-19T10:39:06;24.10;99.90
59128;DHT22;44912;52.754;5.994;2022-08-19T10:41:35;24.20;99.90
59128;DHT22;44912;52.754;5.994;2022-08-19T10:44:04;24.40;99.90
59128;DHT22;44912;52.754;5.994;2022-08-19T10:46:32;24.50;99.90
59128;DHT22;44912;52.754;5.994;2022-08-19T10:48:59;24.60;99.90
59128;DHT22;44912;52.754;5.994;2022-08-19T10:51:24;24.50;99.90
59128;DHT22;44912;52.754;5.994;2022-08-19T10:54:08;24.60;99.90
59128;DHT22;44912;52.754;5.994;2022-08-19T10:56:35;24.60;99.90
59128;DHT22;44912;52.754;5.994;2022-08-19T10:59:29;24.40;99.90
59128;DHT22;44912;52.754;5.994;2022-08-19T11:01:59;24.30;99.90
59128;DHT22;44912;52.754;5.994;2022-08-19T11:04:25;24.50;99.90
59128;DHT22;44912;52.754;5.994;2022-08-19T11:06:56;24.70;99.90
59128;DHT22;44912;52.754;5.994;2022-08-19T11:09:49;24.80;99.90
59128;DHT22;44912;52.754;5.994;2022-08-19T11:12:14;24.90;99.90
59128;DHT22;44912;52.754;5.994;2022-08-19T11:14:40;24.90;99.90
59128;DHT22;44912;52.754;5.994;2022-08-19T11:17:06;24.80;99.90
59128;DHT22;44912;52.754;5.994;2022-08-19T11:19:32;24.80;99.90
59128;DHT22;44912;52.754;5.994;2022-08-19T11:21:59;24.80;99.90
59128;DHT22;44912;52.754;5.994;2022-08-19T11:24:26;24.80;99.90
59128;DHT22;44912;52.754;5.994;2022-08-19T11:26:55;24.80;99.90
59128;DHT22;44912;52.754;5.994;2022-08-19T11:29:25;24.80;99.90
59128;DHT22;44912;52.754;5.994;2022-08-19T11:31:52;24.80;99.90
59128;DHT22;44912;52.754;5.994;2022-08-19T11:34:21;25.00;99.90
59128;DHT22;44912;52.754;5.994;2022-08-19T11:36:49;25.10;99.90
59128;DHT22;44912;52.754;5.994;2022-08-19T11:39:17;25.20;99.90
59128;DHT22;44912;52.754;5.994;2022-08-19T11:41:43;25.20;99.90
59128;DHT22;44912;52.754;5.994;2022-08-19T11:44:09;25.20;99.90
59128;DHT22;44912;52.754;5.994;2022-08-19T11:46:36;25.20;99.90
59128;DHT22;44912;52.754;5.994;2022-08-19T11:49:03;25.30;99.90
59128;DHT22;44912;52.754;5.994;2022-08-19T11:51:30;25.30;99.90
59128;DHT22;44912;52.754;5.994;2022-08-19T11:53:58;25.30;99.90
59128;DHT22;44912;52.754;5.994;2022-08-19T11:56:25;25.10;99.90
59128;DHT22;44912;52.754;5.994;2022-08-19T11:58:51;25.10;99.90
59128;DHT22;44912;52.754;5.994;2022-08-19T12:01:19;25.00;99.90
59128;DHT22;44912;52.754;5.994;2022-08-19T12:03:47;25.20;99.90
59128;DHT22;44912;52.754;5.994;2022-08-19T12:06:17;25.20;99.90
59128;DHT22;44912;52.754;5.994;2022-08-19T12:08:44;25.30;99.90
59128;DHT22;44912;52.754;5.994;2022-08-19T12:11:12;25.40;99.90
59128;DHT22;44912;52.754;5.994;2022-08-19T12:13:39;25.20;99.90
59128;DHT22;44912;52.754;5.994;2022-08-19T12:16:17;25.10;99.90
59128;DHT22;44912;52.754;5.994;2022-08-19T12:18:44;25.30;99.90
59128;DHT22;44912;52.754;5.994;2022-08-19T12:21:14;25.50;99.90
59128;DHT22;44912;52.754;5.994;2022-08-19T12:23:41;25.80;99.90
59128;DHT22;44912;52.754;5.994;2022-08-19T12:26:09;25.90;99.90
59128;DHT22;44912;52.754;5.994;2022-08-19T12:28:35;25.70;99.90
59128;DHT22;44912;52.754;5.994;2022-08-19T12:31:01;25.50;99.90
59128;DHT22;44912;52.754;5.994;2022-08-19T12:33:26;25.20;99.90
59128;DHT22;44912;52.754;5.994;2022-08-19T12:35:54;25.00;99.90
59128;DHT22;44912;52.754;5.994;2022-08-19T12:38:21;24.80;99.90
59128;DHT22;44912;52.754;5.994;2022-08-19T12:40:49;24.70;99.90
59128;DHT22;44912;52.754;5.994;2022-08-19T12:43:17;25.00;99.90
59128;DHT22;44912;52.754;5.994;2022-08-19T12:45:45;25.40;99.90
59128;DHT22;44912;52.754;5.994;2022-08-19T12:48:11;25.60;99.90
59128;DHT22;44912;52.754;5.994;2022-08-19T12:50:39;26.00;99.90
59128;DHT22;44912;52.754;5.994;2022-08-19T12:53:05;25.90;99.90
59128;DHT22;44912;52.754;5.994;2022-08-19T12:55:31;25.70;99.90
59128;DHT22;44912;52.754;5.994;2022-08-19T12:57:57;25.50;99.90
59128;DHT22;44912;52.754;5.994;2022-08-19T13:00:23;25.30;99.90
59128;DHT22;44912;52.754;5.994;2022-08-19T13:02:51;25.20;99.90
59128;DHT22;44912;52.754;5.994;2022-08-19T13:05:20;25.10;99.90
59128;DHT22;44912;52.754;5.994;2022-08-19T13:07:47;25.00;99.90
59128;DHT22;44912;52.754;5.994;2022-08-19T13:10:16;24.80;99.90
59128;DHT22;44912;52.754;5.994;2022-08-19T13:12:43;24.70;99.90
59128;DHT22;44912;52.754;5.994;2022-08-19T13:15:10;24.70;99.90
59128;DHT22;44912;52.754;5.994;2022-08-19T13:17:36;24.60;99.90
59128;DHT22;44912;52.754;5.994;2022-08-19T13:20:03;24.60;99.90
59128;DHT22;44912;52.754;5.994;2022-08-19T13:22:29;24.50;99.90
59128;DHT22;44912;52.754;5.994;2022-08-19T13:24:54;24.40;99.90
59128;DHT22;44912;52.754;5.994;2022-08-19T13:27:20;24.40;99.90
59128;DHT22;44912;52.754;5.994;2022-08-19T13:29:45;24.60;99.90
59128;DHT22;44912;52.754;5.994;2022-08-19T13:32:30;24.80;99.90
59128;DHT22;44912;52.754;5.994;2022-08-19T13:35:14;24.70;99.90
59128;DHT22;44912;52.754;5.994;2022-08-19T13:37:41;24.60;99.90
59128;DHT22;44912;52.754;5.994;2022-08-19T13:42:40;24.40;99.90
59128;DHT22;44912;52.754;5.994;2022-08-19T13:45:06;24.40;99.90
59128;DHT22;44912;52.754;5.994;2022-08-19T13:47:34;24.30;99.90
59128;DHT22;44912;52.754;5.994;2022-08-19T13:50:02;24.40;99.90
59128;DHT22;44912;52.754;5.994;2022-08-19T13:52:28;24.30;99.90
59128;DHT22;44912;52.754;5.994;2022-08-19T13:54:53;24.30;99.90
59128;DHT22;44912;52.754;5.994;2022-08-19T13:57:19;24.20;99.90
59128;DHT22;44912;52.754;5.994;2022-08-19T13:59:45;24.20;99.90
59128;DHT22;44912;52.754;5.994;2022-08-19T14:02:10;24.20;99.90
59128;DHT22;44912;52.754;5.994;2022-08-19T14:04:36;24.40;99.90
59128;DHT22;44912;52.754;5.994;2022-08-19T14:07:03;24.50;99.90
59128;DHT22;44912;52.754;5.994;2022-08-19T14:09:29;24.50;99.90
59128;DHT22;44912;52.754;5.994;2022-08-19T14:11:55;24.40;99.90
59128;DHT22;44912;52.754;5.994;2022-08-19T14:14:20;24.30;99.90
59128;DHT22;44912;52.754;5.994;2022-08-19T14:16:46;24.20;99.90
59128;DHT22;44912;52.754;5.994;2022-08-19T14:19:12;24.10;99.90
59128;DHT22;44912;52.754;5.994;2022-08-19T14:21:38;24.00;99.90
59128;DHT22;44912;52.754;5.994;2022-08-19T14:24:04;24.00;99.90
59128;DHT22;44912;52.754;5.994;2022-08-19T14:26:30;23.90;99.90
59128;DHT22;44912;52.754;5.994;2022-08-19T14:28:56;24.00;99.90
59128;DHT22;44912;52.754;5.994;2022-08-19T14:31:23;24.10;99.90
59128;DHT22;44912;52.754;5.994;2022-08-19T14:33:49;24.30;99.90
59128;DHT22;44912;52.754;5.994;2022-08-19T14:36:16;24.40;99.90
59128;DHT22;44912;52.754;5.994;2022-08-19T14:38:42;24.50;99.90
59128;DHT22;44912;52.754;5.994;2022-08-19T14:41:20;24.70;99.90
59128;DHT22;44912;52.754;5.994;2022-08-19T14:43:48;24.70;99.90
59128;DHT22;44912;52.754;5.994;2022-08-19T14:46:19;24.80;99.90
59128;DHT22;44912;52.754;5.994;2022-08-19T14:48:46;24.90;99.90
59128;DHT22;44912;52.754;5.994;2022-08-19T14:51:12;24.80;99.90
59128;DHT22;44912;52.754;5.994;2022-08-19T14:53:39;24.90;99.90
59128;DHT22;44912;52.754;5.994;2022-08-19T14:56:13;24.90;99.90
59128;DHT22;44912;52.754;5.994;2022-08-19T14:58:40;24.70;99.90
59128;DHT22;44912;52.754;5.994;2022-08-19T15:01:06;24.50;99.90
59128;DHT22;44912;52.754;5.994;2022-08-19T15:03:32;24.50;99.90
59128;DHT22;44912;52.754;5.994;2022-08-19T15:06:00;24.40;99.90
59128;DHT22;44912;52.754;5.994;2022-08-19T15:08:28;24.40;99.90
59128;DHT22;44912;52.754;5.994;2022-08-19T15:10:54;24.40;99.90
59128;DHT22;44912;52.754;5.994;2022-08-19T15:13:20;24.50;99.90
59128;DHT22;44912;52.754;5.994;2022-08-19T15:15:47;24.50;99.90
59128;DHT22;44912;52.754;5.994;2022-08-19T15:18:13;24.70;99.90
59128;DHT22;44912;52.754;5.994;2022-08-19T15:20:38;24.80;99.90
59128;DHT22;44912;52.754;5.994;2022-08-19T15:23:06;24.70;99.90
59128;DHT22;44912;52.754;5.994;2022-08-19T15:25:32;24.60;99.90
59128;DHT22;44912;52.754;5.994;2022-08-19T15:27:58;24.60;99.90
59128;DHT22;44912;52.754;5.994;2022-08-19T15:30:27;24.50;99.90
59128;DHT22;44912;52.754;5.994;2022-08-19T15:32:59;24.50;99.90
59128;DHT22;44912;52.754;5.994;2022-08-19T15:35:24;24.40;99.90
59128;DHT22;44912;52.754;5.994;2022-08-19T15:37:54;24.40;99.90
59128;DHT22;44912;52.754;5.994;2022-08-19T15:40:21;24.40;99.90
59128;DHT22;44912;52.754;5.994;2022-08-19T15:42:47;24.40;99.90
59128;DHT22;44912;52.754;5.994;2022-08-19T15:45:14;24.30;99.90
59128;DHT22;44912;52.754;5.994;2022-08-19T15:47:40;24.30;99.90
59128;DHT22;44912;52.754;5.994;2022-08-19T15:52:32;24.10;99.90
59128;DHT22;44912;52.754;5.994;2022-08-19T15:54:57;24.00;99.90
59128;DHT22;44912;52.754;5.994;2022-08-19T15:57:23;24.00;99.90
59128;DHT22;44912;52.754;5.994;2022-08-19T15:59:51;23.90;99.90
59128;DHT22;44912;52.754;5.994;2022-08-19T16:02:36;23.90;99.90
59128;DHT22;44912;52.754;5.994;2022-08-19T16:05:22;23.90;99.90
59128;DHT22;44912;52.754;5.994;2022-08-19T16:08:07;23.80;99.90
59128;DHT22;44912;52.754;5.994;2022-08-19T16:10:35;23.90;99.90
59128;DHT22;44912;52.754;5.994;2022-08-19T16:13:00;23.90;99.90
59128;DHT22;44912;52.754;5.994;2022-08-19T16:15:29;24.00;99.90
59128;DHT22;44912;52.754;5.994;2022-08-19T16:17:56;24.00;99.90
59128;DHT22;44912;52.754;5.994;2022-08-19T16:20:22;24.10;99.90
59128;DHT22;44912;52.754;5.994;2022-08-19T16:22:49;24.10;99.90
59128;DHT22;44912;52.754;5.994;2022-08-19T16:25:15;24.20;99.90
59128;DHT22;44912;52.754;5.994;2022-08-19T16:27:40;24.10;99.90
59128;DHT22;44912;52.754;5.994;2022-08-19T16:30:07;24.10;99.90
59128;DHT22;44912;52.754;5.994;2022-08-19T16:32:33;24.10;99.90
59128;DHT22;44912;52.754;5.994;2022-08-19T16:35:01;24.10;99.90
59128;DHT22;44912;52.754;5.994;2022-08-19T16:37:28;24.10;99.90
59128;DHT22;44912;52.754;5.994;2022-08-19T16:39:54;24.00;99.90
59128;DHT22;44912;52.754;5.994;2022-08-19T16:42:20;23.80;99.90
59128;DHT22;44912;52.754;5.994;2022-08-19T16:44:46;23.70;99.90
59128;DHT22;44912;52.754;5.994;2022-08-19T16:47:12;23.60;99.90
59128;DHT22;44912;52.754;5.994;2022-08-19T16:49:38;23.50;99.90
59128;DHT22;44912;52.754;5.994;2022-08-19T16:52:05;23.40;99.90
59128;DHT22;44912;52.754;5.994;2022-08-19T16:54:34;23.50;99.90
59128;DHT22;44912;52.754;5.994;2022-08-19T16:57:00;23.40;99.90
59128;DHT22;44912;52.754;5.994;2022-08-19T16:59:25;23.50;99.90
59128;DHT22;44912;52.754;5.994;2022-08-19T17:01:51;23.50;99.90
59128;DHT22;44912;52.754;5.994;2022-08-19T17:04:17;23.40;99.90
59128;DHT22;44912;52.754;5.994;2022-08-19T17:06:43;23.50;99.90
59128;DHT22;44912;52.754;5.994;2022-08-19T17:09:09;23.40;99.90
59128;DHT22;44912;52.754;5.994;2022-08-19T17:11:35;23.40;99.90
59128;DHT22;44912;52.754;5.994;2022-08-19T17:14:02;23.40;99.90
59128;DHT22;44912;52.754;5.994;2022-08-19T17:16:31;23.30;99.90
59128;DHT22;44912;52.754;5.994;2022-08-19T17:18:58;23.30;99.90
59128;DHT22;44912;52.754;5.994;2022-08-19T17:21:27;23.20;99.90
59128;DHT22;44912;52.754;5.994;2022-08-19T17:23:58;23.20;99.90
59128;DHT22;44912;52.754;5.994;2022-08-19T17:26:24;23.10;99.90
59128;DHT22;44912;52.754;5.994;2022-08-19T17:28:52;23.10;99.90
59128;DHT22;44912;52.754;5.994;2022-08-19T17:31:20;23.10;99.90
59128;DHT22;44912;52.754;5.994;2022-08-19T17:33:45;23.10;99.90
59128;DHT22;44912;52.754;5.994;2022-08-19T17:36:11;23.10;99.90
59128;DHT22;44912;52.754;5.994;2022-08-19T17:38:37;23.20;99.90
59128;DHT22;44912;52.754;5.994;2022-08-19T17:41:04;23.10;99.90
59128;DHT22;44912;52.754;5.994;2022-08-19T17:43:34;23.00;99.90
59128;DHT22;44912;52.754;5.994;2022-08-19T17:46:02;23.00;99.90
59128;DHT22;44912;52.754;5.994;2022-08-19T17:48:33;23.00;99.90
59128;DHT22;44912;52.754;5.994;2022-08-19T17:53:44;23.10;99.90
59128;DHT22;44912;52.754;5.994;2022-08-19T17:56:11;23.10;99.90
59128;DHT22;44912;52.754;5.994;2022-08-19T17:58:39;23.00;99.90
59128;DHT22;44912;52.754;5.994;2022-08-19T18:01:10;23.00;99.90
59128;DHT22;44912;52.754;5.994;2022-08-19T18:03:37;23.00;99.90
59128;DHT22;44912;52.754;5.994;2022-08-19T18:06:04;23.00;99.90
59128;DHT22;44912;52.754;5.994;2022-08-19T18:08:30;23.00;99.90
59128;DHT22;44912;52.754;5.994;2022-08-19T18:10:56;23.00;99.90
59128;DHT22;44912;52.754;5.994;2022-08-19T18:13:22;23.10;99.90
59128;DHT22;44912;52.754;5.994;2022-08-19T18:15:47;23.00;99.90
59128;DHT22;44912;52.754;5.994;2022-08-19T18:18:14;22.90;99.90
59128;DHT22;44912;52.754;5.994;2022-08-19T18:20:39;22.80;99.90
59128;DHT22;44912;52.754;5.994;2022-08-19T18:23:05;22.70;99.90
59128;DHT22;44912;52.754;5.994;2022-08-19T18:25:30;22.60;99.90
59128;DHT22;44912;52.754;5.994;2022-08-19T18:27:58;22.60;99.90
59128;DHT22;44912;52.754;5.994;2022-08-19T18:30:28;22.50;99.90
59128;DHT22;44912;52.754;5.994;2022-08-19T18:32:58;22.30;99.90
59128;DHT22;44912;52.754;5.994;2022-08-19T18:35:26;22.20;99.90
59128;DHT22;44912;52.754;5.994;2022-08-19T18:37:55;22.10;99.90
59128;DHT22;44912;52.754;5.994;2022-08-19T18:40:22;22.10;99.90
59128;DHT22;44912;52.754;5.994;2022-08-19T18:43:07;22.00;99.90
59128;DHT22;44912;52.754;5.994;2022-08-19T18:45:36;21.90;99.90
59128;DHT22;44912;52.754;5.994;2022-08-19T18:48:20;21.80;99.90
59128;DHT22;44912;52.754;5.994;2022-08-19T18:51:05;21.80;99.90
59128;DHT22;44912;52.754;5.994;2022-08-19T18:53:33;21.70;99.90
59128;DHT22;44912;52.754;5.994;2022-08-19T18:55:59;21.60;99.90
59128;DHT22;44912;52.754;5.994;2022-08-19T18:58:27;21.60;99.90
59128;DHT22;44912;52.754;5.994;2022-08-19T19:01:02;21.50;99.90
59128;DHT22;44912;52.754;5.994;2022-08-19T19:03:33;21.50;99.90
59128;DHT22;44912;52.754;5.994;2022-08-19T19:05:59;21.40;99.90
59128;DHT22;44912;52.754;5.994;2022-08-19T19:08:24;21.40;99.90
59128;DHT22;44912;52.754;5.994;2022-08-19T19:10:50;21.30;99.90
59128;DHT22;44912;52.754;5.994;2022-08-19T19:13:15;21.30;99.90
59128;DHT22;44912;52.754;5.994;2022-08-19T19:15:41;21.20;99.90
59128;DHT22;44912;52.754;5.994;2022-08-19T19:18:09;21.20;99.90
59128;DHT22;44912;52.754;5.994;2022-08-19T19:20:39;21.10;99.90
59128;DHT22;44912;52.754;5.994;2022-08-19T19:23:08;21.10;99.90
59128;DHT22;44912;52.754;5.994;2022-08-19T19:25:42;21.00;99.90
59128;DHT22;44912;52.754;5.994;2022-08-19T19:28:09;21.10;99.90
59128;DHT22;44912;52.754;5.994;2022-08-19T19:30:35;21.10;99.90
59128;DHT22;44912;52.754;5.994;2022-08-19T19:33:00;21.10;99.90
59128;DHT22;44912;52.754;5.994;2022-08-19T19:35:26;21.10;99.90
59128;DHT22;44912;52.754;5.994;2022-08-19T19:37:54;21.10;99.90
59128;DHT22;44912;52.754;5.994;2022-08-19T19:40:20;21.00;99.90
59128;DHT22;44912;52.754;5.994;2022-08-19T19:42:47;21.10;99.90
59128;DHT22;44912;52.754;5.994;2022-08-19T19:45:13;21.10;99.90
59128;DHT22;44912;52.754;5.994;2022-08-19T19:47:39;21.10;99.90
59128;DHT22;44912;52.754;5.994;2022-08-19T19:50:12;21.10;99.90
59128;DHT22;44912;52.754;5.994;2022-08-19T19:52:40;21.00;99.90
59128;DHT22;44912;52.754;5.994;2022-08-19T19:55:08;21.00;99.90
59128;DHT22;44912;52.754;5.994;2022-08-19T19:58:02;21.00;99.90
59128;DHT22;44912;52.754;5.994;2022-08-19T20:01:19;20.90;99.90
59128;DHT22;44912;52.754;5.994;2022-08-19T20:03:46;20.80;99.90
59128;DHT22;44912;52.754;5.994;2022-08-19T20:06:13;20.80;99.90
59128;DHT22;44912;52.754;5.994;2022-08-19T20:08:39;20.80;99.90